Time;durP1;ratioP1;P1;durP2;ratioP2;P2;SDS_P1;SDS_P2;PMS_P1;PMS_P2;Temp;Humidity;BMP_temperature;BMP_pressure;BME280_temperature;BME280_humidity;BME280_pressure;Samples;Min_cycle;Max_cycle;Signal;HPM_P1;HPM_P2
2022/07/19 00:01:59;;;;;;;4.78;2.60;;;;;;;26.33;38.15;98540.28;4972754;28;20043;-78
2022/07/19 00:04:25;;;;;;;6.60;2.60;;;;;;;26.26;38.24;98541.50;4973070;28;20058;-79
2022/07/19 00:06:51;;;;;;;10.88;2.80;;;;;;;26.22;38.35;98549.38;4940945;28;20133;-78
2022/07/19 00:09:17;;;;;;;9.18;2.78;;;;;;;26.08;38.45;98532.38;4972505;28;20050;-77
2022/07/19 00:11:43;;;;;;;6.70;2.88;;;;;;;26.04;38.29;98531.19;4957267;28;20461;-78
2022/07/19 00:14:08;;;;;;;13.35;2.70;;;;;;;26.09;38.31;98538.69;4988809;28;20051;-78
2022/07/19 00:16:34;;;;;;;6.90;2.58;;;;;;;26.05;38.20;98519.16;4956579;28;20038;-80
2022/07/19 00:19:00;;;;;;;5.60;2.50;;;;;;;26.05;38.39;98512.88;4974059;28;20051;-81
2022/07/19 00:21:26;;;;;;;7.97;2.70;;;;;;;26.07;38.04;98513.47;4956363;28;20054;-78
2022/07/19 00:23:52;;;;;;;7.72;2.90;;;;;;;26.04;38.14;98497.50;4972582;28;20494;-78
2022/07/19 00:26:17;;;;;;;4.00;2.42;;;;;;;26.04;38.22;98483.81;4956581;28;20039;-78
2022/07/19 00:28:43;;;;;;;8.35;2.40;;;;;;;25.93;38.18;98463.63;4972899;28;20548;-78
2022/07/19 00:31:09;;;;;;;3.20;2.30;;;;;;;26.02;38.13;98459.41;4973847;28;20050;-78
2022/07/19 00:33:35;;;;;;;5.72;2.47;;;;;;;26.01;38.04;98462.41;4972953;28;20208;-78
2022/07/19 00:36:01;;;;;;;9.05;2.70;;;;;;;26.05;38.03;98463.56;4956651;28;20493;-78
2022/07/19 00:38:27;;;;;;;3.72;2.42;;;;;;;26.10;37.87;98455.44;4956176;28;20466;-78
2022/07/19 00:40:52;;;;;;;6.55;2.65;;;;;;;26.08;37.84;98452.13;4956502;28;20042;-78
2022/07/19 00:43:18;;;;;;;8.93;3.08;;;;;;;26.11;37.88;98455.22;4988481;28;20038;-79
2022/07/19 00:45:44;;;;;;;3.53;2.50;;;;;;;26.18;37.69;98449.59;4972764;28;20050;-77
2022/07/19 00:48:10;;;;;;;3.85;2.28;;;;;;;26.10;37.85;98436.25;4972329;28;20050;-77
2022/07/19 00:50:36;;;;;;;5.43;2.55;;;;;;;26.21;37.72;98440.84;4988906;28;20042;-77
2022/07/19 00:53:06;;;;;;;4.65;2.47;;;;;;;26.24;37.79;98448.59;4988624;28;20046;-77
2022/07/19 00:55:35;;;;;;;12.10;2.50;;;;;;;26.26;37.64;98443.72;4972782;28;20047;-76
2022/07/19 00:58:01;;;;;;;;;;;;;;;26.32;37.40;98445.44;4974436;28;20044;-76
2022/07/19 01:00:30;;;;;;;3.85;2.50;;;;;;;26.32;37.52;98439.97;4974566;28;20447;-77
2022/07/19 01:02:56;;;;;;;7.75;2.30;;;;;;;26.37;37.54;98439.25;4976296;28;20090;-77
2022/07/19 01:05:22;;;;;;;6.43;2.88;;;;;;;26.44;37.45;98437.19;4960615;28;20046;-78
2022/07/19 01:07:48;;;;;;;5.55;2.50;;;;;;;26.36;37.30;98427.44;4976523;28;20127;-77
2022/07/19 01:10:15;;;;;;;7.82;2.58;;;;;;;26.45;37.42;98440.75;4976156;28;20137;-77
2022/07/19 01:12:42;;;;;;;6.25;2.45;;;;;;;26.50;37.23;98447.16;4975879;28;20046;-76
2022/07/19 01:15:22;;;;;;;9.43;2.63;;;;;;;26.54;37.22;98437.38;4975729;28;20035;-78
2022/07/19 01:17:49;;;;;;;9.80;2.70;;;;;;;26.59;37.21;98423.75;4959669;28;20553;-77
2022/07/19 01:20:15;;;;;;;6.57;2.60;;;;;;;26.64;36.87;98421.09;4975456;28;20141;-77
2022/07/19 01:22:44;;;;;;;5.60;2.65;;;;;;;26.75;37.12;98421.28;4976808;28;20267;-77
2022/07/19 01:25:10;;;;;;;4.72;2.60;;;;;;;26.79;37.11;98420.50;4959733;28;20043;-77
2022/07/19 01:27:42;;;;;;;6.88;2.85;;;;;;;26.78;37.05;98394.19;4976455;28;20042;-79
2022/07/19 01:30:19;;;;;;;5.90;2.67;;;;;;;26.81;37.04;98399.13;4976692;28;20141;-79
2022/07/19 01:32:49;;;;;;;5.68;2.92;;;;;;;26.79;37.10;98395.84;4975726;28;20039;-79
2022/07/19 01:35:16;;;;;;;2.90;2.38;;;;;;;26.80;37.23;98370.06;4975156;28;20061;-76
2022/07/19 01:37:42;;;;;;;7.53;2.75;;;;;;;26.78;37.20;98360.44;4974987;28;20051;-76
2022/07/19 01:40:11;;;;;;;6.40;2.80;;;;;;;26.77;37.36;98365.09;4959270;28;20042;-77
2022/07/19 01:42:37;;;;;;;4.68;3.00;;;;;;;26.82;37.03;98364.34;4943335;28;20398;-76
2022/07/19 01:45:05;;;;;;;5.45;2.72;;;;;;;26.81;37.45;98363.50;4976257;28;20129;-77
2022/07/19 01:47:30;;;;;;;13.77;3.00;;;;;;;26.85;37.29;98364.69;4974864;28;20042;-78
2022/07/19 01:49:56;;;;;;;7.40;2.60;;;;;;;26.91;37.54;98365.56;4974985;28;20046;-77
2022/07/19 01:52:22;;;;;;;9.20;3.13;;;;;;;26.96;37.27;98368.38;4974801;28;20509;-77
2022/07/19 01:54:48;;;;;;;11.77;2.90;;;;;;;27.13;37.18;98371.13;4991060;28;20116;-79
2022/07/19 01:57:14;;;;;;;4.88;2.60;;;;;;;27.30;37.03;98363.66;4991131;28;20046;-78
2022/07/19 01:59:40;;;;;;;5.50;2.67;;;;;;;27.36;37.11;98356.31;4990848;28;20513;-78
2022/07/19 02:02:06;;;;;;;9.43;2.45;;;;;;;27.44;36.72;98355.03;4974610;28;20043;-78
2022/07/19 02:04:33;;;;;;;11.65;3.10;;;;;;;27.33;37.05;98338.44;4975795;28;20066;-77
2022/07/19 02:06:58;;;;;;;4.22;2.45;;;;;;;27.42;36.91;98335.25;4974609;28;20047;-76
2022/07/19 02:09:25;;;;;;;7.22;2.90;;;;;;;27.35;37.11;98333.53;4974527;28;20066;-77
2022/07/19 02:11:51;;;;;;;18.00;3.38;;;;;;;27.28;37.46;98326.59;4974607;28;20475;-79
2022/07/19 02:14:17;;;;;;;16.70;3.33;;;;;;;27.38;37.10;98326.69;4975487;28;20053;-79
2022/07/19 02:16:43;;;;;;;7.95;3.08;;;;;;;27.38;37.32;98320.38;4974697;28;20577;-77
2022/07/19 02:19:10;;;;;;;11.57;3.20;;;;;;;27.33;37.35;98316.50;4974508;28;20049;-78
2022/07/19 02:21:37;;;;;;;8.23;3.50;;;;;;;27.31;37.51;98335.16;4975538;28;20054;-76
2022/07/19 02:24:05;;;;;;;11.77;3.00;;;;;;;27.38;37.73;98336.84;4974439;28;20193;-77
2022/07/19 02:26:32;;;;;;;7.03;2.88;;;;;;;27.39;37.70;98333.03;4974339;28;20051;-77
2022/07/19 02:28:58;;;;;;;8.80;2.85;;;;;;;27.44;37.66;98335.84;4975393;28;20162;-77
2022/07/19 02:31:24;;;;;;;5.72;2.63;;;;;;;27.50;37.34;98332.06;4974603;28;20510;-77
2022/07/19 02:33:50;;;;;;;5.32;2.50;;;;;;;27.56;37.51;98328.28;4974003;28;20046;-77
2022/07/19 02:36:17;;;;;;;6.53;2.60;;;;;;;27.57;37.54;98321.72;4974143;28;20051;-77
2022/07/19 02:38:44;;;;;;;8.73;3.35;;;;;;;27.65;37.27;98323.19;4975013;28;20421;-76
2022/07/19 02:41:10;;;;;;;8.32;2.42;;;;;;;27.67;37.52;98321.81;4975417;28;20515;-78
2022/07/19 02:43:36;;;;;;;7.50;2.22;;;;;;;27.75;37.59;98331.53;4973661;28;20050;-77
2022/07/19 02:46:02;;;;;;;6.80;2.67;;;;;;;27.75;37.38;98335.09;4958206;28;20395;-79
2022/07/19 02:48:28;;;;;;;11.77;4.30;;;;;;;27.77;37.16;98335.69;4989798;28;20409;-80
2022/07/19 02:50:54;;;;;;;11.50;2.90;;;;;;;27.86;37.01;98326.97;4973700;28;20046;-78
2022/07/19 02:53:20;;;;;;;11.73;2.70;;;;;;;27.81;37.22;98328.59;4957620;28;20125;-79
2022/07/19 02:55:45;;;;;;;8.00;2.63;;;;;;;27.81;37.52;98325.00;4973616;28;20137;-77
2022/07/19 02:58:11;;;;;;;6.63;2.90;;;;;;;27.93;37.49;98333.09;4973490;28;20042;-79
2022/07/19 03:00:37;;;;;;;9.18;2.65;;;;;;;27.92;37.62;98329.53;4957351;28;20039;-77
2022/07/19 03:06:01;;;;;;;7.63;2.83;;;;;;;27.94;37.59;98346.56;4941763;28;20073;-76
2022/07/19 03:08:27;;;;;;;12.77;2.88;;;;;;;27.98;37.65;98341.38;4957183;28;20494;-77
2022/07/19 03:10:53;;;;;;;14.60;2.92;;;;;;;28.11;37.65;98334.63;4975109;28;20034;-79
2022/07/19 03:13:18;;;;;;;9.30;2.70;;;;;;;28.12;37.55;98337.13;4957911;28;20050;-77
2022/07/19 03:15:44;;;;;;;9.57;2.53;;;;;;;28.29;37.38;98348.81;4957389;28;20078;-78
2022/07/19 03:18:10;;;;;;;10.70;2.70;;;;;;;28.40;37.21;98343.41;4989566;28;20047;-77
2022/07/19 03:20:36;;;;;;;10.93;2.63;;;;;;;28.40;37.18;98338.78;4957083;28;20070;-79
2022/07/19 03:23:02;;;;;;;8.80;2.67;;;;;;;28.54;37.27;98339.94;4972991;28;20129;-77
2022/07/19 03:25:28;;;;;;;8.23;2.53;;;;;;;28.63;37.33;98337.56;4973948;28;20134;-77
2022/07/19 03:27:53;;;;;;;10.48;2.40;;;;;;;28.65;37.14;98338.09;4973281;28;20039;-77
2022/07/19 03:30:19;;;;;;;11.05;2.47;;;;;;;28.63;37.14;98326.56;4989587;28;20125;-78
2022/07/19 03:32:45;;;;;;;8.43;2.40;;;;;;;28.69;37.23;98332.91;4973141;28;20502;-78
2022/07/19 03:35:11;;;;;;;7.57;2.50;;;;;;;28.79;37.07;98335.72;4940920;28;20039;-78
2022/07/19 03:37:37;;;;;;;23.38;3.20;;;;;;;28.74;37.28;98339.28;4972702;28;20043;-77
2022/07/19 03:40:04;;;;;;;6.57;2.40;;;;;;;28.73;36.77;98336.78;4989155;28;20081;-78
2022/07/19 03:42:30;;;;;;;10.75;3.17;;;;;;;28.61;37.12;98328.72;4974043;28;20542;-78
2022/07/19 03:44:56;;;;;;;11.35;2.80;;;;;;;28.80;36.35;98340.13;4988906;28;20126;-77
2022/07/19 03:47:21;;;;;;;13.90;2.65;;;;;;;28.88;36.11;98338.81;4973012;28;20058;-77
2022/07/19 03:49:47;;;;;;;4.57;2.30;;;;;;;28.84;36.56;98332.19;4972903;28;20078;-77
2022/07/19 03:52:13;;;;;;;23.23;4.38;;;;;;;28.95;36.50;98333.91;4974022;28;20039;-79
2022/07/19 03:54:39;;;;;;;17.38;3.17;;;;;;;29.04;36.13;98333.16;4973072;28;20110;-77
2022/07/19 03:57:05;;;;;;;12.77;2.47;;;;;;;29.13;36.34;98329.91;4989056;28;20422;-77
2022/07/19 03:59:31;;;;;;;11.98;2.60;;;;;;;29.25;36.44;98330.50;4988979;28;20042;-77
2022/07/19 04:01:57;;;;;;;14.52;2.83;;;;;;;29.36;35.57;98325.84;4940511;28;20191;-77
2022/07/19 04:04:23;;;;;;;11.32;2.90;;;;;;;29.45;35.79;98327.84;4971507;28;20038;-78
2022/07/19 04:06:48;;;;;;;17.60;2.80;;;;;;;29.42;35.59;98327.53;4956419;28;20101;-76
2022/07/19 04:09:14;;;;;;;26.20;3.40;;;;;;;29.30;35.61;98330.53;4972657;28;20078;-77
2022/07/19 04:11:41;;;;;;;29.17;2.90;;;;;;;29.31;35.31;98323.91;4972618;28;20512;-76
2022/07/19 04:14:06;;;;;;;23.38;3.72;;;;;;;29.35;35.16;98336.03;4988860;28;20101;-78
2022/07/19 04:16:33;;;;;;;14.77;2.80;;;;;;;29.25;35.53;98339.56;4973821;28;20046;-77
2022/07/19 04:18:58;;;;;;;22.23;3.42;;;;;;;29.37;35.81;98346.78;4973950;28;20521;-77
2022/07/19 04:21:24;;;;;;;23.48;3.05;;;;;;;29.41;35.80;98342.38;4988592;28;20067;-78
2022/07/19 04:23:50;;;;;;;19.65;2.83;;;;;;;29.32;35.71;98327.50;4956954;28;20043;-78
2022/07/19 04:26:16;;;;;;;14.60;3.05;;;;;;;29.35;35.63;98338.81;4972786;28;20439;-77
2022/07/19 04:28:42;;;;;;;8.27;2.67;;;;;;;29.43;35.54;98330.00;4956338;28;20039;-77
2022/07/19 04:31:08;;;;;;;14.30;3.35;;;;;;;29.49;35.54;98330.88;4972475;28;20101;-78
2022/07/19 04:33:33;;;;;;;13.38;3.03;;;;;;;29.52;35.58;98327.56;4972503;28;20453;-78
2022/07/19 04:35:59;;;;;;;17.17;3.63;;;;;;;29.55;35.66;98320.69;4988488;28;20047;-77
2022/07/19 04:38:25;;;;;;;10.43;2.80;;;;;;;29.54;36.05;98336.38;4975918;28;20162;-77
2022/07/19 04:40:51;;;;;;;10.63;2.63;;;;;;;29.69;35.68;98343.91;4960118;28;20490;-79
2022/07/19 04:43:17;;;;;;;14.77;2.95;;;;;;;29.74;35.70;98325.44;4975783;28;20122;-77
2022/07/19 04:45:44;;;;;;;10.48;2.55;;;;;;;29.90;35.73;98333.72;4975881;28;20049;-78
2022/07/19 04:48:11;;;;;;;16.10;3.00;;;;;;;29.86;35.73;98324.38;4977280;28;20049;-77
2022/07/19 04:50:38;;;;;;;29.65;3.78;;;;;;;29.90;35.46;98323.56;4959710;28;20070;-79
2022/07/19 04:53:04;;;;;;;12.40;2.97;;;;;;;29.94;35.26;98327.44;4959956;28;20038;-77
2022/07/19 04:55:30;;;;;;;25.02;3.40;;;;;;;30.00;35.11;98333.75;4977870;28;20401;-77
2022/07/19 04:57:56;;;;;;;30.67;3.25;;;;;;;30.21;34.81;98335.47;4991936;28;20054;-78
2022/07/19 05:00:22;;;;;;;34.17;3.75;;;;;;;30.10;34.81;98344.81;4975869;28;20134;-77
2022/07/19 05:02:48;;;;;;;33.38;4.68;;;;;;;29.99;34.91;98340.38;4959553;28;20045;-78
2022/07/19 05:05:14;;;;;;;24.50;3.97;;;;;;;29.97;35.34;98339.81;4959510;28;20137;-77
2022/07/19 05:07:41;;;;;;;23.80;3.78;;;;;;;30.03;35.16;98341.47;4992155;28;20038;-78
2022/07/19 05:10:07;;;;;;;25.67;3.35;;;;;;;30.02;35.94;98359.13;4976684;28;20042;-77
2022/07/19 05:12:33;;;;;;;31.17;3.67;;;;;;;30.02;36.28;98345.34;4975494;28;20042;-78
2022/07/19 05:15:00;;;;;;;10.98;2.88;;;;;;;30.09;36.02;98343.16;4959481;28;20082;-78
2022/07/19 05:17:26;;;;;;;17.05;3.00;;;;;;;30.03;36.28;98343.41;4991722;28;20047;-78
2022/07/19 05:19:52;;;;;;;17.52;3.17;;;;;;;30.23;36.68;98346.22;4975347;28;20565;-79
2022/07/19 05:22:18;;;;;;;17.27;2.88;;;;;;;30.37;36.69;98338.22;4958808;28;20150;-78
2022/07/19 05:24:44;;;;;;;21.23;3.30;;;;;;;30.45;36.18;98330.22;4975289;28;20039;-77
2022/07/19 05:27:10;;;;;;;13.25;3.03;;;;;;;30.35;35.82;98337.66;4975167;28;20100;-77
2022/07/19 05:29:36;;;;;;;25.58;2.83;;;;;;;30.31;35.94;98342.91;4975246;28;20054;-77
2022/07/19 05:32:02;;;;;;;21.38;3.40;;;;;;;30.49;36.04;98356.13;4975174;28;20042;-79
2022/07/19 05:34:28;;;;;;;20.30;3.20;;;;;;;30.76;35.78;98359.72;4959129;28;20129;-78
2022/07/19 05:36:54;;;;;;;17.05;3.17;;;;;;;30.69;35.90;98360.81;4959740;28;20077;-78
2022/07/19 05:39:19;;;;;;;9.73;2.67;;;;;;;30.57;35.19;98379.56;4958958;28;20039;-78
2022/07/19 05:41:45;;;;;;;13.10;2.72;;;;;;;30.46;35.07;98384.25;4991333;28;20038;-77
2022/07/19 05:44:11;;;;;;;15.20;2.53;;;;;;;30.44;35.21;98402.19;4991323;28;20527;-78
2022/07/19 05:46:40;;;;;;;13.45;3.40;;;;;;;30.38;35.21;98389.50;4991477;28;20509;-78
2022/07/19 05:49:11;;;;;;;12.38;2.47;;;;;;;30.41;35.38;98377.94;4974581;28;20189;-79
2022/07/19 05:51:37;;;;;;;17.55;2.60;;;;;;;30.69;35.21;98396.69;4958656;28;20054;-78
2022/07/19 05:54:04;;;;;;;15.70;3.05;;;;;;;30.72;35.43;98407.16;4975840;28;20039;-78
2022/07/19 05:56:30;;;;;;;18.15;2.95;;;;;;;30.74;35.85;98404.16;4976148;28;20057;-77
2022/07/19 05:58:57;;;;;;;17.27;2.90;;;;;;;30.76;35.66;98398.34;4974982;28;20102;-78
2022/07/19 06:01:23;;;;;;;17.05;2.70;;;;;;;30.67;35.89;98393.38;4974612;28;20043;-79
2022/07/19 06:03:53;;;;;;;18.80;2.90;;;;;;;30.68;36.20;98428.13;4990812;28;20133;-78
2022/07/19 06:06:20;;;;;;;9.30;2.67;;;;;;;30.68;36.29;98408.81;4974618;28;20046;-77
2022/07/19 06:08:46;;;;;;;14.48;2.80;;;;;;;30.85;36.47;98404.97;4974441;28;20047;-76
2022/07/19 06:11:13;;;;;;;21.50;2.85;;;;;;;30.93;36.33;98398.88;4974688;28;20538;-78
2022/07/19 06:13:40;;;;;;;14.35;3.17;;;;;;;31.15;35.89;98407.69;4974589;28;20621;-77
2022/07/19 06:16:06;;;;;;;17.77;3.33;;;;;;;31.30;35.66;98406.00;4958415;28;20053;-77
2022/07/19 06:18:34;;;;;;;12.60;2.85;;;;;;;31.28;35.37;98402.66;4974241;28;20047;-78
2022/07/19 06:21:06;;;;;;;10.40;2.88;;;;;;;31.50;35.49;98403.19;4974225;28;20047;-77
2022/07/19 06:23:32;;;;;;;7.05;3.10;;;;;;;31.69;35.08;98406.97;4974767;28;20057;-78
2022/07/19 06:25:58;;;;;;;9.88;2.42;;;;;;;31.76;35.31;98408.59;4990413;28;20077;-78
2022/07/19 06:28:25;;;;;;;9.88;2.60;;;;;;;31.96;35.24;98408.50;4974407;28;20074;-78
2022/07/19 06:30:51;;;;;;;5.55;2.97;;;;;;;31.98;35.46;98411.81;4975245;28;20049;-77
2022/07/19 06:33:17;;;;;;;16.60;3.20;;;;;;;32.02;35.36;98418.44;4974295;28;20051;-77
2022/07/19 06:35:43;;;;;;;9.90;3.60;;;;;;;32.15;34.70;98422.50;4974522;28;20101;-78
2022/07/19 06:38:09;;;;;;;10.43;2.85;;;;;;;32.16;35.21;98436.06;4974100;28;20042;-77
2022/07/19 06:40:35;;;;;;;9.23;2.80;;;;;;;32.16;35.42;98430.53;4957826;28;20042;-78
2022/07/19 06:43:01;;;;;;;18.30;2.97;;;;;;;32.22;35.11;98427.72;4957729;28;20141;-79
2022/07/19 06:45:27;;;;;;;11.93;3.03;;;;;;;32.14;35.30;98438.25;4974563;28;20454;-78
2022/07/19 06:47:52;;;;;;;10.68;3.20;;;;;;;32.38;35.21;98435.63;4958243;28;20454;-78
2022/07/19 06:50:19;;;;;;;15.63;3.20;;;;;;;32.59;35.33;98441.84;4990205;28;20432;-79
2022/07/19 06:52:45;;;;;;;15.60;3.30;;;;;;;32.59;35.53;98452.09;4990379;28;20069;-80
2022/07/19 06:55:11;;;;;;;12.68;3.50;;;;;;;32.61;35.80;98464.53;4989984;28;20490;-79
2022/07/19 06:57:37;;;;;;;10.07;3.17;;;;;;;32.44;35.93;98458.56;4989746;28;20074;-78
2022/07/19 07:00:05;;;;;;;16.75;3.30;;;;;;;32.33;36.78;98454.19;4973553;28;20077;-80
2022/07/19 07:02:31;;;;;;;;;;;;;;;32.53;35.99;98450.47;4974272;28;20046;-77
2022/07/19 07:04:56;;;;;;;14.70;4.10;;;;;;;32.24;36.84;98464.22;4974847;28;19922;-78
2022/07/19 07:07:22;;;;;;;15.07;3.20;;;;;;;31.86;36.42;98469.38;4973761;28;20050;-78
2022/07/19 07:09:48;;;;;;;7.10;2.75;;;;;;;31.72;37.63;98477.41;4974580;28;20078;-78
2022/07/19 07:12:14;;;;;;;13.95;3.58;;;;;;;31.84;37.43;98466.84;4973293;28;20081;-79
2022/07/19 07:14:40;;;;;;;20.90;4.18;;;;;;;31.83;37.79;98472.69;4989848;28;20078;-79
2022/07/19 07:17:06;;;;;;;20.40;3.75;;;;;;;31.62;37.88;98494.00;4957551;28;20136;-78
2022/07/19 07:19:35;;;;;;;11.45;3.45;;;;;;;31.73;38.09;98492.88;4988992;28;20070;-78
2022/07/19 07:22:01;;;;;;;9.75;3.35;;;;;;;32.08;37.28;98480.91;4973390;28;20058;-77
2022/07/19 07:24:28;;;;;;;15.63;3.75;;;;;;;32.22;36.46;98483.84;4973911;28;20137;-77
2022/07/19 07:26:54;;;;;;;12.60;3.75;;;;;;;32.24;36.71;98480.81;4973610;28;20050;-78
2022/07/19 07:29:20;;;;;;;13.57;3.38;;;;;;;32.22;37.09;98488.56;4974932;28;20593;-78
2022/07/19 07:31:46;;;;;;;17.67;3.60;;;;;;;32.44;36.59;98496.47;4973083;28;20486;-78
2022/07/19 07:34:12;;;;;;;13.35;3.30;;;;;;;32.25;36.92;98493.50;4974181;28;20105;-77
2022/07/19 07:36:38;;;;;;;14.48;3.15;;;;;;;31.94;36.77;98495.63;4973268;28;20038;-78
2022/07/19 07:39:04;;;;;;;11.10;4.35;;;;;;;31.78;37.48;98506.66;4957008;28;20486;-77
2022/07/19 07:41:30;;;;;;;15.10;3.45;;;;;;;31.80;37.64;98506.41;4956870;28;20039;-78
2022/07/19 07:43:55;;;;;;;12.65;3.58;;;;;;;31.84;37.50;98511.06;4989734;28;20145;-78
2022/07/19 07:46:21;;;;;;;16.98;3.47;;;;;;;31.69;37.95;98524.94;4989456;28;20054;-77
2022/07/19 07:48:47;;;;;;;12.80;3.55;;;;;;;31.42;38.59;98528.03;4989133;28;20125;-78
2022/07/19 07:51:13;;;;;;;10.43;3.50;;;;;;;31.26;39.67;98534.66;4973607;28;20418;-77
2022/07/19 07:53:39;;;;;;;9.98;3.22;;;;;;;31.02;40.05;98537.16;4972879;28;20123;-78
2022/07/19 07:56:05;;;;;;;12.75;3.00;;;;;;;31.07;39.17;98538.00;4956802;28;20050;-77
2022/07/19 07:58:30;;;;;;;7.22;3.03;;;;;;;31.27;39.21;98539.91;4974012;28;20113;-77
2022/07/19 08:00:56;;;;;;;7.35;3.00;;;;;;;31.37;39.02;98547.41;4972998;28;20453;-79
2022/07/19 08:03:22;;;;;;;6.22;3.30;;;;;;;31.34;38.31;98554.28;4940669;28;20414;-79
2022/07/19 08:05:48;;;;;;;10.63;3.13;;;;;;;31.34;37.95;98561.75;4956298;28;20409;-79
2022/07/19 08:08:15;;;;;;;10.85;3.25;;;;;;;31.51;38.52;98553.97;4972892;28;20046;-78
2022/07/19 08:10:41;;;;;;;9.32;3.08;;;;;;;31.58;38.46;98559.22;4972547;28;20046;-77
2022/07/19 08:13:09;;;;;;;10.95;3.50;;;;;;;31.14;39.84;98574.44;4976778;28;20515;-77
2022/07/19 08:15:38;;;;;;;7.80;2.97;;;;;;;31.06;39.88;98555.63;4993132;28;20134;-79
2022/07/19 08:18:05;;;;;;;9.93;3.55;;;;;;;31.06;39.52;98563.91;4992973;28;20042;-78
2022/07/19 08:20:31;;;;;;;15.73;3.42;;;;;;;31.20;38.86;98566.97;4977849;28;20367;-78
2022/07/19 08:22:57;;;;;;;10.93;3.20;;;;;;;31.20;37.95;98553.16;4992445;28;20061;-78
2022/07/19 08:25:23;;;;;;;8.38;3.22;;;;;;;31.55;38.14;98571.66;4993385;28;20684;-78
2022/07/19 08:27:49;;;;;;;9.90;2.72;;;;;;;31.65;36.54;98579.94;4992538;28;20116;-78
2022/07/19 08:30:15;;;;;;;11.25;2.95;;;;;;;31.59;34.59;98597.59;4976347;28;20046;-79
2022/07/19 08:32:41;;;;;;;5.97;2.60;;;;;;;31.46;35.50;98578.03;4976317;28;20443;-77
2022/07/19 08:35:08;;;;;;;11.07;2.67;;;;;;;31.48;36.64;98601.50;4977552;28;20046;-78
2022/07/19 08:37:34;;;;;;;6.60;2.80;;;;;;;31.37;37.84;98600.69;4977137;28;20046;-78
2022/07/19 08:40:01;;;;;;;5.22;2.58;;;;;;;31.31;36.90;98584.38;4977061;28;20145;-78
2022/07/19 08:42:30;;;;;;;10.70;2.53;;;;;;;31.48;35.66;98590.44;4992492;28;20049;-77
2022/07/19 08:44:59;;;;;;;6.97;2.45;;;;;;;31.42;35.58;98591.56;4959947;28;20429;-77
2022/07/19 08:47:27;;;;;;;12.20;2.50;;;;;;;31.26;36.29;98598.19;4975896;28;20110;-78
2022/07/19 08:49:53;;;;;;;;;;;;;;;31.05;36.46;98602.84;4960258;28;20137;-77
2022/07/19 08:52:20;;;;;;;9.82;2.47;;;;;;;30.84;36.10;98608.34;4975875;28;20056;-79
2022/07/19 08:54:47;;;;;;;13.35;2.30;;;;;;;30.81;34.97;98591.50;4960215;28;20046;-78
2022/07/19 08:59:58;;;;;;;12.13;2.45;;;;;;;31.09;36.03;98640.66;4959689;28;20053;-77
2022/07/19 09:02:23;;;;;;;20.05;2.92;;;;;;;31.23;36.54;98631.84;4959462;28;20089;-78
2022/07/19 09:05:07;;;;;;;7.90;2.20;;;;;;;31.11;37.26;98607.28;4959566;28;20049;-78
2022/07/19 09:07:39;;;;;;;12.88;2.50;;;;;;;31.07;37.38;98609.75;4960230;28;20038;-77
2022/07/19 09:10:17;;;;;;;10.55;2.63;;;;;;;30.87;38.00;98640.88;4975685;28;20038;-78
2022/07/19 09:13:08;;;;;;;15.18;2.45;;;;;;;30.71;39.60;98645.50;4975779;28;20043;-78
2022/07/19 09:15:42;;;;;;;14.23;2.35;;;;;;;30.49;39.18;98653.16;4959613;28;20109;-78
2022/07/19 09:18:20;;;;;;;9.70;2.30;;;;;;;30.73;37.98;98642.50;4959385;28;20049;-77
2022/07/19 09:20:49;;;;;;;10.88;2.30;;;;;;;30.73;37.83;98648.84;4943355;28;20175;-77
2022/07/19 09:23:16;;;;;;;27.20;2.85;;;;;;;30.65;37.44;98649.34;4973967;28;20569;-78
2022/07/19 09:25:52;;;;;;;6.57;1.98;;;;;;;30.77;37.06;98656.59;4991457;28;20047;-77
2022/07/19 09:28:20;;;;;;;11.43;2.28;;;;;;;30.48;37.83;98662.53;4959899;28;20038;-78
2022/07/19 09:30:51;;;;;;;21.55;2.72;;;;;;;30.72;37.48;98665.66;4975387;28;20038;-78
2022/07/19 09:33:23;;;;;;;10.25;2.60;;;;;;;31.12;37.03;98664.97;4991447;28;20097;-77
2022/07/19 09:35:56;;;;;;;14.40;2.25;;;;;;;31.13;37.53;98666.63;4975155;28;20039;-78
2022/07/19 09:38:29;;;;;;;14.45;2.15;;;;;;;31.24;37.26;98672.16;4974931;28;20046;-77
2022/07/19 09:41:16;;;;;;;8.32;2.17;;;;;;;31.31;36.95;98668.06;4958938;28;20070;-77
2022/07/19 09:43:55;;;;;;;5.30;1.90;;;;;;;31.05;37.14;98669.91;4958901;28;20080;-78
2022/07/19 09:46:38;;;;;;;12.05;2.47;;;;;;;31.18;37.22;98655.59;4942763;28;20630;-77
2022/07/19 09:49:05;;;;;;;6.63;2.10;;;;;;;30.92;37.59;98657.47;4991250;28;20050;-77
2022/07/19 09:51:37;;;;;;;8.77;2.25;;;;;;;30.89;38.41;98682.84;4976363;28;20138;-78
2022/07/19 09:54:05;;;;;;;4.70;1.80;;;;;;;30.91;37.92;98690.84;4975116;28;20050;-79
2022/07/19 09:56:31;;;;;;;5.65;1.90;;;;;;;30.60;39.01;98674.16;4991266;28;20473;-78
2022/07/19 09:58:58;;;;;;;13.57;2.10;;;;;;;30.88;38.45;98688.63;4974874;28;20121;-77
2022/07/19 10:01:25;;;;;;;3.67;1.50;;;;;;;30.88;37.85;98688.63;4976307;28;20085;-78
2022/07/19 10:03:54;;;;;;;12.50;2.60;;;;;;;30.88;37.74;98702.41;4975237;28;20058;-78
2022/07/19 10:06:21;;;;;;;13.77;1.70;;;;;;;30.71;38.38;98692.41;4974931;28;20042;-77
2022/07/19 10:08:50;;;;;;;4.32;2.00;;;;;;;30.63;38.78;98695.69;4958544;28;20408;-78
2022/07/19 10:11:17;;;;;;;5.13;1.80;;;;;;;30.52;38.19;98699.50;4974523;28;20038;-77
2022/07/19 10:13:43;;;;;;;4.30;1.52;;;;;;;30.43;38.39;98706.63;4958317;28;20050;-78
2022/07/19 10:16:17;;;;;;;10.82;2.00;;;;;;;30.42;38.92;98694.75;4991072;28;20088;-77
2022/07/19 10:19:01;;;;;;;6.63;1.98;;;;;;;30.53;38.86;98692.88;4974497;28;20110;-78
2022/07/19 10:21:27;;;;;;;10.40;2.10;;;;;;;30.42;39.47;98691.16;4990502;28;20063;-78
2022/07/19 10:23:53;;;;;;;6.40;1.75;;;;;;;30.06;39.69;98713.00;4958021;28;20042;-78
2022/07/19 10:26:55;;;;;;;5.28;1.63;;;;;;;29.68;39.18;98730.59;4974306;28;20053;-80
2022/07/19 10:29:23;;;;;;;3.88;1.50;;;;;;;29.79;39.20;98695.69;4884418;29;20036;-77
2022/07/19 10:32:06;;;;;;;5.72;1.80;;;;;;;30.16;37.93;98702.03;4975630;28;20137;-77
2022/07/19 10:34:33;;;;;;;5.75;1.70;;;;;;;29.95;38.40;98711.25;4975212;28;20046;-77
2022/07/19 10:36:59;;;;;;;11.55;2.13;;;;;;;29.75;38.84;98712.78;4973847;28;20584;-77
2022/07/19 10:39:38;;;;;;;4.20;1.95;;;;;;;29.87;38.69;98756.66;4973805;28;20232;-76
2022/07/19 10:42:19;;;;;;;10.77;2.03;;;;;;;29.71;38.91;98725.41;4974061;28;20509;-78
2022/07/19 10:45:05;;;;;;;5.50;2.00;;;;;;;30.10;38.70;98722.38;4973719;28;20047;-78
2022/07/19 10:47:31;;;;;;;15.82;2.58;;;;;;;30.29;38.29;98728.34;4989838;28;20502;-77
2022/07/19 10:50:05;;;;;;;14.13;2.85;;;;;;;30.27;38.27;98746.22;4973694;28;20173;-77
2022/07/19 10:52:33;;;;;;;13.95;2.53;;;;;;;30.15;38.39;98744.47;4957813;28;20104;-78
2022/07/19 10:55:22;;;;;;;8.80;2.60;;;;;;;29.96;39.20;98748.75;4973432;28;20130;-77
2022/07/19 10:58:11;;;;;;;6.43;2.30;;;;;;;29.79;39.21;98767.31;4957666;28;20046;-77
2022/07/19 11:00:49;;;;;;;12.55;2.40;;;;;;;29.86;39.79;98745.88;4973781;28;20043;-78
2022/07/19 11:03:21;;;;;;;14.07;2.67;;;;;;;29.87;39.40;98758.59;4973628;28;20089;-77
2022/07/19 11:05:59;;;;;;;7.80;2.50;;;;;;;29.62;39.65;98749.00;4975166;28;20141;-77
2022/07/19 11:08:35;;;;;;;11.73;2.47;;;;;;;29.66;40.03;98758.41;4975022;28;20078;-77
2022/07/19 11:11:17;;;;;;;7.28;2.65;;;;;;;29.83;38.60;98746.44;4973357;28;20519;-78
2022/07/19 11:13:46;;;;;;;20.88;3.17;;;;;;;30.12;38.14;98744.16;4973359;28;20060;-77
2022/07/19 11:16:13;;;;;;;14.07;2.60;;;;;;;30.48;37.22;98745.25;4973221;28;20067;-77
2022/07/19 11:18:39;;;;;;;7.65;2.20;;;;;;;30.77;36.92;98750.38;4973350;28;20475;-78
2022/07/19 11:21:06;;;;;;;6.55;2.30;;;;;;;31.23;36.11;98748.66;4973173;28;20054;-78
2022/07/19 11:23:36;;;;;;;6.47;2.50;;;;;;;31.45;35.83;98762.25;4974505;28;20047;-78
2022/07/19 11:26:07;;;;;;;4.30;2.00;;;;;;;32.08;35.05;98749.06;4972899;28;20142;-79
2022/07/19 11:28:33;;;;;;;3.90;2.10;;;;;;;32.74;33.29;98750.06;4972989;28;20046;-78
2022/07/19 11:30:59;;;;;;;6.50;1.83;;;;;;;33.13;32.05;98751.00;4989448;28;20050;-79
2022/07/19 11:33:25;;;;;;;6.53;1.80;;;;;;;33.53;30.63;98751.91;4973015;28;20525;-77
2022/07/19 11:35:55;;;;;;;7.38;2.03;;;;;;;32.95;31.51;98754.44;4989321;28;20042;-78
2022/07/19 11:38:21;;;;;;;7.43;1.80;;;;;;;32.93;32.13;98748.31;4956712;28;20045;-77